地図

経路データ

SID SEASON NUMBER BASIN SUBBASIN NAME ISO_TIME NATURE LAT LON WMO_WIND WMO_PRES WMO_AGENCY TRACK_TYPE DIST2LAND LANDFALL IFLAG USA_AGENCY USA_ATCF_ID USA_LAT USA_LON USA_RECORD USA_STATUS USA_WIND USA_PRES USA_SSHS USA_R34_NE USA_R34_SE USA_R34_SW USA_R34_NW USA_R50_NE USA_R50_SE USA_R50_SW USA_R50_NW USA_R64_NE USA_R64_SE USA_R64_SW USA_R64_NW USA_POCI USA_ROCI USA_RMW USA_EYE TOKYO_LAT TOKYO_LON TOKYO_GRADE TOKYO_WIND TOKYO_PRES TOKYO_R50_DIR TOKYO_R50_LONG TOKYO_R50_SHORT TOKYO_R30_DIR TOKYO_R30_LONG TOKYO_R30_SHORT TOKYO_LAND CMA_LAT CMA_LON CMA_CAT CMA_WIND CMA_PRES HKO_LAT HKO_LON HKO_CAT HKO_WIND HKO_PRES NEWDELHI_LAT NEWDELHI_LON NEWDELHI_GRADE NEWDELHI_WIND NEWDELHI_PRES NEWDELHI_CI NEWDELHI_DP NEWDELHI_POCI REUNION_LAT REUNION_LON REUNION_TYPE REUNION_WIND REUNION_PRES REUNION_TNUM REUNION_CI REUNION_RMW REUNION_R34_NE REUNION_R34_SE REUNION_R34_SW REUNION_R34_NW REUNION_R50_NE REUNION_R50_SE REUNION_R50_SW REUNION_R50_NW REUNION_R64_NE REUNION_R64_SE REUNION_R64_SW REUNION_R64_NW BOM_LAT BOM_LON BOM_TYPE BOM_WIND BOM_PRES BOM_TNUM BOM_CI BOM_RMW BOM_R34_NE BOM_R34_SE BOM_R34_SW BOM_R34_NW BOM_R50_NE BOM_R50_SE BOM_R50_SW BOM_R50_NW BOM_R64_NE BOM_R64_SE BOM_R64_SW BOM_R64_NW BOM_ROCI BOM_POCI BOM_EYE BOM_POS_METHOD BOM_PRES_METHOD NADI_LAT NADI_LON NADI_CAT NADI_WIND NADI_PRES WELLINGTON_LAT WELLINGTON_LON WELLINGTON_WIND WELLINGTON_PRES DS824_LAT DS824_LON DS824_STAGE DS824_WIND DS824_PRES TD9636_LAT TD9636_LON TD9636_STAGE TD9636_WIND TD9636_PRES TD9635_LAT TD9635_LON TD9635_WIND TD9635_PRES TD9635_ROCI NEUMANN_LAT NEUMANN_LON NEUMANN_CLASS NEUMANN_WIND NEUMANN_PRES MLC_LAT MLC_LON MLC_CLASS MLC_WIND MLC_PRES USA_GUST BOM_GUST BOM_GUST_PER REUNION_GUST REUNION_GUST_PER USA_SEAHGT USA_SEARAD_NE USA_SEARAD_SE USA_SEARAD_SW USA_SEARAD_NW STORM_SPEED STORM_DIR
2015355S16136 2016 110 SP EA NOT_NAMED 2015-12-21 03:00:00 NR -15.6000 136.000 15 1005 bom main 0 0 ______O_______ -1 -15.6000 136.000 15 1005 45 45 6 270
2015355S16136 2016 110 SP EA NOT_NAMED 2015-12-21 06:00:00 NR -15.6000 135.700 15 1003 bom main 0 0 ______O_______ -1 -15.6000 135.700 15 1003 45 45 0 0
2015355S16136 2016 110 SP EA NOT_NAMED 2015-12-21 09:00:00 NR -15.6000 136.000 15 1003 bom main 0 0 ______O_______ -1 -15.6000 136.000 15 1003 45 45 5 113
2015355S16136 2016 110 SP EA NOT_NAMED 2015-12-21 12:00:00 NR -15.8000 136.200 15 1003 bom main 0 0 ______O_______ -1 -15.8000 136.200 15 1003 45 45 8 166
2015355S16136 2016 110 SP EA NOT_NAMED 2015-12-21 15:00:00 NR -16.4000 136.200 15 1007 bom main 0 0 ______O_______ -1 -16.4000 136.200 15 1007 29 29 8 229
2015355S16136 2016 110 SP EA NOT_NAMED 2015-12-21 18:00:00 NR -16.3000 135.600 15 1005 bom main 0 0 ______O_______ -1 -16.3000 135.600 15 1005 29 29 14 287
2015355S16136 2016 110 SI WA NOT_NAMED 2015-12-21 21:00:00 NR -16.0000 134.800 15 1005 bom main 0 0 ______O_______ -1 -16.0000 134.800 15 1005 45 45 18 280
2015355S16136 2016 110 SI WA NOT_NAMED 2015-12-22 00:00:00 NR -16.0000 133.800 10 1007 bom main 0 0 ______O_______ -1 -16.0000 133.800 10 1007 179 1010 45 45 18 270
2015355S16136 2016 110 SI WA NOT_NAMED 2015-12-22 03:00:00 NR -16.0000 132.900 10 1005 bom main 0 0 ______O_______ -1 -16.0000 132.900 10 1005 45 45 11 270
2015355S16136 2016 110 SI WA NOT_NAMED 2015-12-22 06:00:00 NR -16.0000 132.700 10 1002 bom main 0 0 ______O_______ -1 -16.0000 132.700 10 1002 45 45 8 307
2015355S16136 2016 110 SI WA NOT_NAMED 2015-12-22 09:00:00 NR -15.5000 132.200 10 1002 bom main 0 0 ______O_______ -1 -15.5000 132.200 10 1002 45 45 6 322
2015355S16136 2016 110 SI WA NOT_NAMED 2015-12-22 12:00:00 NR -15.5000 132.300 10 1003 bom main 0 0 ______O_______ -1 -15.5000 132.300 10 1003 45 45 1 90
2015355S16136 2016 110 SI WA NOT_NAMED 2015-12-22 15:00:00 NR -15.5000 132.300 10 1003 bom main 0 0 ______O_______ -1 -15.5000 132.300 10 1003 45 45 1 90
2015355S16136 2016 110 SI WA NOT_NAMED 2015-12-22 18:00:00 NR -15.5000 132.400 10 1001 bom main 0 0 ______O_______ -1 -15.5000 132.400 10 1001 45 45 7 352
2015355S16136 2016 110 SI WA NOT_NAMED 2015-12-22 21:00:00 NR -14.8000 132.200 10 1002 bom main 0 0 ______O_______ -1 -14.8000 132.200 10 1002 119 1006 45 45 13 334
2015355S16136 2016 110 SI WA NOT_NAMED 2015-12-23 00:00:00 NR -14.3000 131.800 10 1003 bom main 0 0 ______O_______ -1 -14.3000 131.800 10 1003 119 1006 45 45 9 329
2015355S16136 2016 110 SI WA NOT_NAMED 2015-12-23 03:00:00 NR -14.0000 131.700 10 1001 bom main 0 0 ______V_______ -1 -14.0000 131.700 10 1001 119 1004 45 45 8 337
2015355S16136 2016 110 SI WA NOT_NAMED 2015-12-23 06:00:00 NR -13.6000 131.500 10 998 bom main 0 0 ______O_______ -1 -13.6000 131.500 10 998 119 1002 45 45 6 330
2015355S16136 2016 110 SI WA NOT_NAMED 2015-12-23 09:00:00 NR -13.5000 131.400 10 999 bom main 0 0 ______V_______ -1 -13.5000 131.400 10 999 119 1003 45 45 4 316
2015355S16136 2016 110 SI WA NOT_NAMED 2015-12-23 12:00:00 NR -13.3000 131.200 10 1001 bom main 0 0 ______O_______ -1 -13.3000 131.200 10 1001 119 1004 45 45 5 324
2015355S16136 2016 110 SI WA NOT_NAMED 2015-12-23 15:00:00 NR -13.1000 131.100 10 997 bom main 0 0 ______V_______ -1 -13.1000 131.100 10 997 134 1002 45 45 8 1
2015355S16136 2016 110 SI WA NOT_NAMED 2015-12-23 18:00:00 NR -12.5000 131.200 10 996 bom main 0 0 ______O_______ -1 -12.5000 131.200 10 996 150 1001 45 45 7 26
2015355S16136 2016 110 SI WA NOT_NAMED 2015-12-23 21:00:00 NR -12.5000 131.400 30 997 bom main 0 0 ______O_______ -1 -12.5000 131.400 30 997 119 1004 45 45 5 102
2015355S16136 2016 110 SI WA NOT_NAMED 2015-12-24 00:00:00 NR -12.6000 131.700 30 999 bom main 0 0 ______O_______ -1 -12.6000 131.700 30 999 150 1006 45 45 8 126
2015355S16136 2016 110 SI WA NOT_NAMED 2015-12-24 03:00:00 NR -13.0000 132.100 25 998 bom main 0 0 ______V_______ -1 -13.0000 132.100 25 998 134 1002 45 45 10 144
2015355S16136 2016 110 SI WA NOT_NAMED 2015-12-24 06:00:00 NR -13.4000 132.300 25 995 bom main 0 0 ______O_______ -1 -13.4000 132.300 25 995 119 1002 45 45 8 166
2015355S16136 2016 110 SI WA NOT_NAMED 2015-12-24 09:00:00 NR -13.8000 132.300 25 996 bom main 0 0 ______V_______ -1 -13.8000 132.300 25 996 119 1002 45 45 7 206
2015355S16136 2016 110 SI WA NOT_NAMED 2015-12-24 12:00:00 NR -14.0000 132.000 25 997 bom main 0 0 ______O_______ -1 -14.0000 132.000 25 997 119 1002 45 45 11 254
2015355S16136 2016 110 SI WA NOT_NAMED 2015-12-24 15:00:00 NR -14.1000 131.200 25 997 bom main 0 0 ______O_______ -1 -14.1000 131.200 25 997 119 1002 45 45 9 270
2015355S16136 2016 110 SI WA NOT_NAMED 2015-12-24 18:00:00 NR -14.0000 131.100 25 994 bom main 0 0 ______O_______ -1 -14.0000 131.100 25 994 119 1002 45 45 2 243
2015355S16136 2016 110 SI WA NOT_NAMED 2015-12-24 21:00:00 NR -14.2000 131.000 25 994 bom main 0 0 ______O_______ -1 -14.2000 131.000 25 994 119 1002 45 45 3 197
2015355S16136 2016 110 SI WA NOT_NAMED 2015-12-25 00:00:00 NR -14.3000 131.000 25 995 bom main 0 0 ______O_______ -1 -14.3000 131.000 25 995 119 1003 45 45 4 33
2015355S16136 2016 110 SI WA NOT_NAMED 2015-12-25 03:00:00 NR -13.9000 131.200 25 996 bom main 0 0 ______V_______ -1 -13.9000 131.200 25 996 94 1001 45 45 6 50
2015355S16136 2016 110 SI WA NOT_NAMED 2015-12-25 06:00:00 NR -13.9000 131.500 25 996 bom main 0 0 ______O_______ -1 -13.9000 131.500 25 996 70 1000 45 45 7 106
2015355S16136 2016 110 SI WA NOT_NAMED 2015-12-25 09:00:00 NR -14.1000 131.900 25 996 bom main 0 0 ______O_______ -1 -14.1000 131.900 25 996 70 1000 45 45 8 104
2015355S16136 2016 110 SI WA NOT_NAMED 2015-12-25 12:00:00 NR -14.1000 132.300 25 997 bom main 0 0 ______O_______ -1 -14.1000 132.300 25 997 59 1002 45 45 5 128
2015355S16136 2016 110 SI WA NOT_NAMED 2015-12-25 15:00:00 NR -14.4000 132.300 25 999 bom main 0 0 ______O_______ -1 -14.4000 132.300 25 999 70 1004 45 45 5 159
2015355S16136 2016 110 SI WA NOT_NAMED 2015-12-25 18:00:00 NR -14.6000 132.500 25 996 bom main 0 0 ______O_______ -1 -14.6000 132.500 25 996 90 1002 45 45 4 136
2015355S16136 2016 110 SI WA NOT_NAMED 2015-12-25 21:00:00 NR -14.7000 132.600 25 997 bom main 0 0 ______V_______ -1 -14.7000 132.600 25 997 74 1002 45 45 2 117
2015355S16136 2016 110 SI WA NOT_NAMED 2015-12-26 00:00:00 NR -14.7000 132.700 25 996 bom main 0 0 ______O_______ -1 -14.7000 132.700 25 996 59 1002 45 45 5 102
2015355S16136 2016 110 SI WA NOT_NAMED 2015-12-26 03:00:00 NR -14.8000 133.100 25 997 bom main 0 0 ______V_______ -1 -14.8000 133.100 25 997 79 1002 45 45 7 125
2015355S16136 2016 110 SI WA NOT_NAMED 2015-12-26 06:00:00 NR -15.1000 133.300 25 996 bom main 0 0 ______O_______ -1 -15.1000 133.300 25 996 99 1001 45 45 4 154
2015355S16136 2016 110 SI WA NOT_NAMED 2015-12-26 09:00:00 NR -15.2000 133.300 25 996 bom main 0 0 ______O_______ -1 -15.2000 133.300 25 996 75 1000 45 45 3 136
2015355S16136 2016 110 SI WA NOT_NAMED 2015-12-26 12:00:00 NR -15.3000 133.500 25 996 bom main 0 0 ______O_______ -1 -15.3000 133.500 25 996 75 1000 45 45 5 112
2015355S16136 2016 110 SI WA NOT_NAMED 2015-12-26 15:00:00 NR -15.4000 133.800 25 997 bom main 0 0 ______V_______ -1 -15.4000 133.800 25 997 97 1001 45 45 5 102
2015355S16136 2016 110 SI WA NOT_NAMED 2015-12-26 18:00:00 NR -15.4000 134.000 25 996 bom main 0 0 ______O_______ -1 -15.4000 134.000 25 996 119 1002 45 45 4 105
2015355S16136 2016 110 SI WA NOT_NAMED 2015-12-26 21:00:00 NR -15.5000 134.200 15 998 bom main 0 0 ______V_______ -1 -15.5000 134.200 15 998 164 1004 45 45 6 90
2015355S16136 2016 110 SI WA NOT_NAMED 2015-12-27 00:00:00 NR -15.4000 134.600 15 999 bom main 0 0 ______O_______ -1 -15.4000 134.600 15 999 210 1006 45 45 8 83
2015355S16136 2016 110 SP EA NOT_NAMED 2015-12-27 03:00:00 NR -15.4000 135.000 15 998 bom main 0 0 ______O_______ -1 -15.4000 135.000 15 998 179 1006 45 45 10 107
2015355S16136 2016 110 SP EA NOT_NAMED 2015-12-27 06:00:00 NR -15.7000 135.600 15 996 bom main 0 0 ______O_______ -1 -15.7000 135.600 15 996 210 1004 45 45 6 142
2015355S16136 2016 110 SP EA NOT_NAMED 2015-12-27 09:00:00 NR -15.9000 135.400 15 997 bom main 0 0 ______O_______ -1 -15.9000 135.400 15 997 45 45 4 147
2015355S16136 2016 110 SP EA NOT_NAMED 2015-12-27 12:00:00 NR -16.0000 135.800 15 998 bom main 0 0 ______O_______ -1 -16.0000 135.800 15 998 45 45 6 90
2015355S16136 2016 110 SP EA NOT_NAMED 2015-12-27 15:00:00 NR -15.9000 136.000 15 998 bom main 0 0 ______O_______ -1 -15.9000 136.000 15 998 45 45 3 90
2015355S16136 2016 110 SP EA NOT_NAMED 2015-12-27 18:00:00 NR -16.0000 136.100 15 997 bom main 0 0 ______O_______ -1 -16.0000 136.100 15 997 45 45 2 153
2015355S16136 2016 110 SP EA NOT_NAMED 2015-12-27 21:00:00 NR -16.1000 136.100 15 997 bom main 0 0 ______O_______ -1 -16.1000 136.100 15 997 45 45 2 172
2015355S16136 2016 110 SP EA NOT_NAMED 2015-12-28 00:00:00 NR -16.2000 136.100 15 998 bom main 0 0 ______O_______ -1 -16.2000 136.100 15 998 45 45 2 207
2015355S16136 2016 110 SP EA NOT_NAMED 2015-12-28 03:00:00 NR -16.3000 136.000 15 998 bom main 0 0 ______O_______ -1 -16.3000 136.000 15 998 45 45 2 207
2015355S16136 2016 110 SP EA NOT_NAMED 2015-12-28 06:00:00 NR -16.4000 136.000 15 996 bom main 0 0 ______O_______ -1 -16.4000 136.000 15 996 45 45 4 193
2015355S16136 2016 110 SP EA NOT_NAMED 2015-12-28 09:00:00 NR -16.7000 135.900 20 996 bom main 0 0 ______O_______ -1 -16.7000 135.900 20 996 45 45 5 191
2015355S16136 2016 110 SP EA NOT_NAMED 2015-12-28 12:00:00 NR -16.9000 135.900 20 996 bom main 0 0 ______O_______ -1 -16.9000 135.900 20 996 119 1004 45 45 3 163
2015355S16136 2016 110 SP EA NOT_NAMED 2015-12-28 15:00:00 NR -17.0000 136.000 20 997 bom main 0 0 ______V_______ -1 -17.0000 136.000 20 997 134 1003 45 45 1 0
2015355S16136 2016 110 SP EA NOT_NAMED 2015-12-28 18:00:00 NR -17.0000 135.900 20 995 bom main 0 0 ______O_______ -1 -17.0000 135.900 20 995 150 1002 45 45 1 0
2015355S16136 2016 110 SP EA NOT_NAMED 2015-12-28 21:00:00 NR -17.1000 136.000 20 995 bom main 0 0 ______V_______ -1 -17.1000 136.000 20 995 194 1005 45 45 2 153
2015355S16136 2016 110 SP EA NOT_NAMED 2015-12-29 00:00:00 NR -17.2000 136.000 20 996 bom main 0 0 ______O_______ -1 -17.2000 136.000 20 996 239 1008 45 45 6 150
2015355S16136 2016 110 SP EA NOT_NAMED 2015-12-29 03:00:00 NR -17.6000 136.300 15 996 bom main 0 0 ______O_______ -1 -17.6000 136.300 15 996 40 40 7 155
2015355S16136 2016 110 SP EA NOT_NAMED 2015-12-29 06:00:00 NR -17.8000 136.300 20 997 bom main 0 0 ______O_______ -1 -17.8000 136.300 20 997 45 45 5 141
2015355S16136 2016 110 SP EA NOT_NAMED 2015-12-29 09:00:00 NR -17.9672 136.614 main 0 0 ______P_______ -1 -17.9672 136.614 20 997 8 121
2015355S16136 2016 110 SP EA NOT_NAMED 2015-12-29 12:00:00 NR -18.2000 137.000 20 998 bom main 0 0 ______O_______ -1 -18.2000 137.000 20 998 45 45 8 148
2015355S16136 2016 110 SP EA NOT_NAMED 2015-12-29 15:00:00 NR -18.6560 137.059 main 0 0 ______P_______ -1 -18.6560 137.059 20 997 11 183
2015355S16136 2016 110 SP EA NOT_NAMED 2015-12-29 18:00:00 NR -19.2530 136.940 main 0 0 ______P_______ -1 -19.2530 136.940 20 997 13 194
2015355S16136 2016 110 SP EA NOT_NAMED 2015-12-29 21:00:00 NR -19.8984 136.726 main 0 0 ______P_______ -1 -19.8984 136.726 20 997 13 198
2015355S16136 2016 110 SP EA NOT_NAMED 2015-12-30 00:00:00 NR -20.5000 136.500 20 997 bom main 0 0 ______O_______ -1 -20.5000 136.500 20 997 45 45 10 197
2015355S16136 2016 110 SP EA NOT_NAMED 2015-12-30 03:00:00 NR -20.8687 136.407 main 0 0 ______P_______ -1 -20.8687 136.407 7 193
2015355S16136 2016 110 SP EA NOT_NAMED 2015-12-30 06:00:00 NR -21.1439 136.334 main 0 0 ______P_______ -1 -21.1439 136.334 5 193
2015355S16136 2016 110 SP EA NOT_NAMED 2015-12-30 09:00:00 NR -21.3465 136.285 main 0 0 ______P_______ -1 -21.3465 136.285 4 191
2015355S16136 2016 110 SP EA NOT_NAMED 2015-12-30 12:00:00 NR -21.4974 136.262 main 0 0 ______P_______ -1 -21.4974 136.262 3 183
2015355S16136 2016 110 SP EA NOT_NAMED 2015-12-30 15:00:00 NR -21.6174 136.270 main 0 0 ______P_______ -1 -21.6174 136.270 2 169
2015355S16136 2016 110 SP EA NOT_NAMED 2015-12-30 18:00:00 NR -21.7274 136.310 main 0 0 ______P_______ -1 -21.7274 136.310 3 155
2015355S16136 2016 110 SP EA NOT_NAMED 2015-12-30 21:00:00 NR -21.8480 136.386 main 0 0 ______P_______ -1 -21.8480 136.386 3 147
2015355S16136 2016 110 SP EA NOT_NAMED 2015-12-31 00:00:00 NR -22.0000 136.500 20 999 bom main 0 0 ______O_______ -1 -22.0000 136.500 20 999 45 45 4 145
2015355S16136 2016 110 SP EA NOT_NAMED 2015-12-31 03:00:00 NR -22.1996 136.655 main 0 0 ______P_______ -1 -22.1996 136.655 6 144
2015355S16136 2016 110 SP EA NOT_NAMED 2015-12-31 06:00:00 NR -22.4448 136.847 main 0 0 ______P_______ -1 -22.4448 136.847 7 144
2015355S16136 2016 110 SP EA NOT_NAMED 2015-12-31 09:00:00 NR -22.7289 137.071 main 0 0 ______P_______ -1 -22.7289 137.071 7 144
2015355S16136 2016 110 SP EA NOT_NAMED 2015-12-31 12:00:00 NR -23.0452 137.322 main 0 0 ______P_______ -1 -23.0452 137.322 8 144
2015355S16136 2016 110 SP EA NOT_NAMED 2015-12-31 15:00:00 NR -23.3871 137.596 main 0 0 ______P_______ -1 -23.3871 137.596 9 144
2015355S16136 2016 110 SP EA NOT_NAMED 2015-12-31 18:00:00 NR -23.7480 137.887 main 0 0 ______P_______ -1 -23.7480 137.887 9 143
2015355S16136 2016 110 SP EA NOT_NAMED 2015-12-31 21:00:00 NR -24.1211 138.190 main 0 0 ______P_______ -1 -24.1211 138.190 9 143
2015355S16136 2016 110 SP EA NOT_NAMED 2016-01-01 00:00:00 NR -24.5000 138.500 20 1002 bom main 0 ______O_______ -1 -24.5000 138.500 20 1002 45 45 9 143

デジタル台風データ・検索

IBTrACS Databaseについて

本データベースは、米国NOAAが公開する1842年以降の世界の熱帯低気圧のベストトラックデータアーカイブInternational Best Track Archive for Climate Stewardship (IBTrACS)を、ウェブで閲覧しやすい形式に変換したものです。

最終更新日:2021-10-08